Time;durP1;ratioP1;P1;durP2;ratioP2;P2;SDS_P1;SDS_P2;PMS_P1;PMS_P2;Temp;Humidity;BMP_temperature;BMP_pressure;BME280_temperature;BME280_humidity;BME280_pressure;Samples;Min_cycle;Max_cycle;Signal;HPM_P1;HPM_P2
2021/03/03 00:00:38;;;;;;;8.80;5.80;;;15.90;57.70;;;;;;5076641;28;20026;-60
2021/03/03 00:03:04;;;;;;;10.45;6.72;;;15.90;57.70;;;;;;5095211;28;20117;-60
2021/03/03 00:05:30;;;;;;;9.40;6.22;;;15.90;57.80;;;;;;5094205;28;20020;-60
2021/03/03 00:07:56;;;;;;;10.52;6.57;;;16.00;57.80;;;;;;5094808;28;20028;-60
2021/03/03 00:10:21;;;;;;;9.43;6.47;;;15.80;57.70;;;;;;5094908;27;20654;-60
2021/03/03 00:12:47;;;;;;;9.75;6.25;;;15.80;57.80;;;;;;5095424;28;20032;-60
2021/03/03 00:15:13;;;;;;;8.50;5.85;;;15.80;57.80;;;;;;5095141;28;20023;-60
2021/03/03 00:17:39;;;;;;;9.65;7.03;;;15.80;57.80;;;;;;5076848;28;20503;-60
2021/03/03 00:20:06;;;;;;;9.40;6.82;;;15.80;57.80;;;;;;5095323;28;20024;-60
2021/03/03 00:22:31;;;;;;;8.48;6.70;;;15.80;57.90;;;;;;5094362;28;20382;-60
2021/03/03 00:24:57;;;;;;;8.25;5.93;;;15.80;57.90;;;;;;5095115;28;20021;-60
2021/03/03 00:27:23;;;;;;;9.82;6.00;;;15.80;77.90;;;;;;5094889;28;20052;-60
2021/03/03 00:29:48;;;;;;;10.18;6.40;;;15.80;57.90;;;;;;5094525;28;20035;-60
2021/03/03 00:32:14;;;;;;;9.88;6.53;;;15.70;57.90;;;;;;5094527;28;20107;-60
2021/03/03 00:34:39;;;;;;;10.50;6.80;;;15.70;57.90;;;;;;5094712;28;20035;-60
2021/03/03 00:37:05;;;;;;;10.20;6.68;;;15.70;58.00;;;;;;5094445;28;20027;-60
2021/03/03 00:39:31;;;;;;;11.23;6.85;;;15.70;58.00;;;;;;5094481;28;20016;-60
2021/03/03 00:41:57;;;;;;;8.20;6.32;;;15.70;58.00;;;;;;5076377;28;20020;-60
2021/03/03 00:44:29;;;;;;;8.80;6.28;;;15.70;58.00;;;;;;5094914;28;20036;-60
2021/03/03 00:46:54;;;;;;;10.02;6.38;;;15.70;58.00;;;;;;5094489;28;20111;-60
2021/03/03 00:49:20;;;;;;;8.60;7.05;;;15.70;58.10;;;;;;5094463;28;20122;-60
2021/03/03 00:51:45;;;;;;;10.00;6.57;;;15.70;58.10;;;;;;5076200;28;20024;-60
2021/03/03 00:54:11;;;;;;;9.32;6.07;;;15.70;58.10;;;;;;5094676;28;20032;-60
2021/03/03 00:56:37;;;;;;;10.48;6.47;;;15.70;58.10;;;;;;5094418;28;20063;-60
2021/03/03 00:59:02;;;;;;;10.32;6.57;;;15.60;58.10;;;;;;5093441;28;20387;-60
2021/03/03 01:01:28;;;;;;;9.25;6.78;;;15.60;58.10;;;;;;5094505;28;20099;-60
2021/03/03 01:03:53;;;;;;;9.88;7.30;;;15.60;58.10;;;;;;5093993;28;20378;-60
2021/03/03 01:06:19;;;;;;;8.85;6.50;;;15.60;58.10;;;;;;5094106;28;20020;-60
2021/03/03 01:08:45;;;;;;;9.27;6.35;;;15.60;58.20;;;;;;5075006;28;20032;-60
2021/03/03 01:11:10;;;;;;;9.20;6.18;;;15.60;58.40;;;;;;5093185;27;20135;-60
2021/03/03 01:13:36;;;;;;;9.45;6.43;;;15.60;58.20;;;;;;5092262;28;20024;-60
2021/03/03 01:16:02;;;;;;;8.85;6.30;;;15.60;58.20;;;;;;5092034;28;20065;-60
2021/03/03 01:18:28;;;;;;;9.85;6.55;;;15.60;58.20;;;;;;5092379;28;20035;-60
2021/03/03 01:20:54;;;;;;;9.80;6.88;;;15.50;58.20;;;;;;5092461;28;20031;-60
2021/03/03 01:23:20;;;;;;;7.90;6.13;;;15.60;58.20;;;;;;5074412;28;20390;-60
2021/03/03 01:25:45;;;;;;;7.82;5.95;;;15.50;58.20;;;;;;5093253;28;20028;-60
2021/03/03 01:28:11;;;;;;;10.13;6.32;;;15.50;58.20;;;;;;5093890;28;20016;-60
2021/03/03 01:30:36;;;;;;;10.23;7.05;;;15.50;58.30;;;;;;5093689;28;20031;-60
2021/03/03 01:33:03;;;;;;;9.57;6.75;;;15.50;58.30;;;;;;5093689;28;20020;-61
2021/03/03 01:35:28;;;;;;;9.45;6.30;;;15.50;58.30;;;;;;5093773;28;20028;-60
2021/03/03 01:37:54;;;;;;;8.75;6.38;;;15.50;58.30;;;;;;5093194;28;20020;-60
2021/03/03 01:40:19;;;;;;;8.00;6.10;;;15.50;58.30;;;;;;5092728;28;20085;-60
2021/03/03 01:42:45;;;;;;;10.88;6.70;;;15.50;58.30;;;;;;5093420;28;20024;-60
2021/03/03 01:45:11;;;;;;;9.82;6.47;;;15.50;58.30;;;;;;5093784;28;20107;-60
2021/03/03 01:47:37;;;;;;;10.23;6.88;;;15.40;58.30;;;;;;5075238;28;20012;-60
2021/03/03 01:50:09;;;;;;;9.25;6.40;;;15.50;58.40;;;;;;5093235;28;20039;-60
2021/03/03 01:52:37;;;;;;;8.27;6.32;;;15.40;58.30;;;;;;5093347;28;20099;-60
2021/03/03 01:55:04;;;;;;;8.63;6.47;;;15.40;58.40;;;;;;5093059;28;20096;-60
2021/03/03 01:57:30;;;;;;;7.63;6.05;;;15.50;78.70;;;;;;5092780;28;20135;-60
2021/03/03 01:59:56;;;;;;;10.30;6.45;;;15.40;58.40;;;;;;5092552;28;20024;-60
2021/03/03 02:02:24;;;;;;;10.02;6.28;;;15.40;58.90;;;;;;5092998;28;20129;-60
2021/03/03 02:04:53;;;;;;;10.77;7.15;;;15.40;58.40;;;;;;5092794;28;20020;-60
2021/03/03 02:07:33;;;;;;;9.50;6.38;;;15.30;58.40;;;;;;5092969;28;20150;-60
2021/03/03 02:10:22;;;;;;;8.32;6.22;;;15.60;58.60;;;;;;5092945;28;20032;-60
2021/03/03 02:13:14;;;;;;;9.70;6.57;;;15.40;58.40;;;;;;5072585;28;20518;-60
2021/03/03 02:15:41;;;;;;;9.57;6.57;;;15.40;58.40;;;;;;5071635;28;20021;-60
2021/03/03 02:18:09;;;;;;;9.52;6.75;;;15.30;58.40;;;;;;5072159;28;20107;-60
2021/03/03 02:20:57;;;;;;;8.75;6.10;;;15.30;58.40;;;;;;5054547;28;20039;-60
2021/03/03 02:23:38;;;;;;;7.65;5.82;;;15.30;58.50;;;;;;5072286;28;20025;-60
2021/03/03 02:26:04;;;;;;;8.23;6.57;;;15.40;78.90;;;;;;5072364;28;20083;-60
2021/03/03 02:28:31;;;;;;;10.60;6.70;;;15.30;58.50;;;;;;5072227;28;20037;-60
2021/03/03 02:30:58;;;;;;;9.05;6.03;;;15.80;58.80;;;;;;5072303;28;20067;-61
2021/03/03 02:33:25;;;;;;;8.95;6.22;;;15.30;58.50;;;;;;5072253;28;20017;-60
2021/03/03 02:35:51;;;;;;;10.05;6.85;;;15.30;58.60;;;;;;5072116;28;20396;-60
2021/03/03 02:38:18;;;;;;;10.63;6.60;;;15.30;58.60;;;;;;5054082;28;20017;-60
2021/03/03 02:40:44;;;;;;;9.30;6.28;;;15.30;58.50;;;;;;5071841;28;20039;-60
2021/03/03 02:43:15;;;;;;;8.98;6.07;;;15.20;58.50;;;;;;5072287;28;20044;-60
2021/03/03 02:45:41;;;;;;;7.90;6.30;;;15.20;58.60;;;;;;5072127;28;20024;-60
2021/03/03 02:48:08;;;;;;;9.43;6.85;;;15.20;58.50;;;;;;5072159;28;20039;-60
2021/03/03 02:50:35;;;;;;;8.50;5.85;;;15.20;58.50;;;;;;5071956;28;20128;-60
2021/03/03 02:53:00;;;;;;;8.70;6.35;;;15.20;58.60;;;;;;5072069;28;20395;-60
2021/03/03 02:55:27;;;;;;;10.15;7.07;;;15.20;58.50;;;;;;5054075;28;20021;-60
2021/03/03 02:57:54;;;;;;;8.95;7.13;;;15.20;58.60;;;;;;5071909;28;20021;-60
2021/03/03 03:00:23;;;;;;;10.20;6.28;;;15.20;58.60;;;;;;5053931;28;20093;-60
2021/03/03 03:02:52;;;;;;;9.30;6.88;;;15.20;58.60;;;;;;5071821;28;20028;-60
2021/03/03 03:05:19;;;;;;;8.95;6.40;;;15.20;58.70;;;;;;5072101;28;20085;-61
2021/03/03 03:07:49;;;;;;;8.52;6.32;;;15.60;58.80;;;;;;5071954;28;20477;-60
2021/03/03 03:10:16;;;;;;;9.45;6.05;;;15.30;59.30;;;;;;5071788;28;20030;-60
2021/03/03 03:12:49;;;;;;;9.07;6.28;;;15.20;79.10;;;;;;5091215;28;20090;-60
2021/03/03 03:15:17;;;;;;;8.85;6.47;;;15.10;58.60;;;;;;5091997;28;20028;-60
2021/03/03 03:17:47;;;;;;;9.98;6.85;;;15.10;58.70;;;;;;5092042;28;20099;-60
2021/03/03 03:20:16;;;;;;;9.07;6.55;;;15.10;58.60;;;;;;5092238;28;20082;-60
2021/03/03 03:22:44;;;;;;;10.13;6.80;;;15.50;58.80;;;;;;5091981;28;20395;-60
2021/03/03 03:25:11;;;;;;;9.20;6.75;;;15.20;58.70;;;;;;5091836;28;20054;-59
2021/03/03 03:27:37;;;;;;;8.75;6.38;;;15.20;78.90;;;;;;5096097;28;20027;-60
2021/03/03 03:30:04;;;;;;;8.48;5.97;;;15.20;79.20;;;;;;5077705;28;20032;-60
2021/03/03 03:32:30;;;;;;;10.82;7.03;;;15.10;58.70;;;;;;5095904;28;20055;-62
2021/03/03 03:34:56;;;;;;;9.68;6.57;;;15.30;58.80;;;;;;5095918;28;20050;-62
2021/03/03 03:37:24;;;;;;;7.22;5.70;;;15.10;58.70;;;;;;5096126;28;20110;-60
2021/03/03 03:39:50;;;;;;;8.77;6.80;;;15.00;58.70;;;;;;5095863;28;20081;-62
2021/03/03 03:42:16;;;;;;;8.98;6.57;;;15.10;58.70;;;;;;5095288;28;20016;-61
2021/03/03 03:44:43;;;;;;;9.07;6.68;;;15.10;58.70;;;;;;5095505;28;20032;-61
2021/03/03 03:47:11;;;;;;;8.20;6.50;;;15.00;58.70;;;;;;5077862;28;20027;-61
2021/03/03 03:49:37;;;;;;;8.98;6.47;;;15.00;58.70;;;;;;5095647;28;20040;-61
2021/03/03 03:52:03;;;;;;;9.57;6.70;;;15.00;79.20;;;;;;5095574;28;20051;-61
2021/03/03 03:54:28;;;;;;;9.63;6.82;;;15.00;58.70;;;;;;5095570;28;20051;-61
2021/03/03 03:56:54;;;;;;;9.18;6.47;;;15.00;58.80;;;;;;5095889;28;20462;-61
2021/03/03 03:59:20;;;;;;;8.60;6.00;;;15.00;58.70;;;;;;5094759;28;20061;-62
2021/03/03 04:01:45;;;;;;;8.43;6.68;;;15.00;58.80;;;;;;5095492;28;20505;-61
2021/03/03 04:04:11;;;;;;;8.43;6.75;;;15.00;58.80;;;;;;5095607;28;20470;-61
2021/03/03 04:06:36;;;;;;;9.95;6.55;;;15.00;58.80;;;;;;5095276;28;20008;-61
2021/03/03 04:09:02;;;;;;;8.55;6.43;;;15.00;58.80;;;;;;5095338;28;20497;-61
2021/03/03 04:11:28;;;;;;;9.65;6.80;;;14.90;58.70;;;;;;5077698;27;20060;-61
2021/03/03 04:13:53;;;;;;;9.18;6.53;;;14.70;58.70;;;;;;5095541;28;20024;-61
2021/03/03 04:16:19;;;;;;;9.05;6.28;;;14.80;58.70;;;;;;5095073;28;20064;-61
2021/03/03 04:18:44;;;;;;;10.20;7.35;;;14.90;79.10;;;;;;5095301;28;20111;-61
2021/03/03 04:21:10;;;;;;;9.32;6.43;;;14.90;58.80;;;;;;5095110;28;20122;-61
2021/03/03 04:23:35;;;;;;;8.05;6.03;;;14.90;79.30;;;;;;5095091;28;20044;-61
2021/03/03 04:26:01;;;;;;;7.38;5.88;;;14.80;79.10;;;;;;5095083;28;20051;-61
2021/03/03 04:28:27;;;;;;;7.43;5.90;;;14.90;58.80;;;;;;5094868;28;20035;-61
2021/03/03 04:30:52;;;;;;;9.40;6.05;;;14.90;58.90;;;;;;5076803;28;20118;-61
2021/03/03 04:33:18;;;;;;;9.48;7.15;;;15.40;59.20;;;;;;5094940;28;20020;-61
2021/03/03 04:35:44;;;;;;;9.35;6.65;;;14.90;58.90;;;;;;5094704;28;20555;-61
2021/03/03 04:38:10;;;;;;;9.52;7.30;;;15.00;79.60;;;;;;5093880;28;20093;-61
2021/03/03 04:40:35;;;;;;;9.70;7.00;;;14.70;58.80;;;;;;5094028;28;20028;-61
2021/03/03 04:43:01;;;;;;;8.18;6.25;;;14.80;58.80;;;;;;5076747;28;20032;-61
2021/03/03 04:45:27;;;;;;;10.93;6.93;;;15.00;80.30;;;;;;5076999;28;20032;-61
2021/03/03 04:47:52;;;;;;;8.45;6.50;;;14.80;58.90;;;;;;5094607;28;20466;-62
2021/03/03 04:50:18;;;;;;;9.02;6.22;;;14.80;58.80;;;;;;5076570;28;20043;-61
2021/03/03 04:52:43;;;;;;;7.78;6.13;;;14.80;58.90;;;;;;5094576;28;20091;-61
2021/03/03 04:55:09;;;;;;;8.40;6.72;;;14.80;58.90;;;;;;5094565;28;20103;-61
2021/03/03 04:57:36;;;;;;;7.75;5.90;;;14.80;58.90;;;;;;5094471;28;20020;-61
2021/03/03 05:00:04;;;;;;;7.93;6.35;;;14.80;58.90;;;;;;5094756;28;20036;-61
2021/03/03 05:02:29;;;;;;;9.60;6.68;;;14.80;58.90;;;;;;5094175;28;20020;-61
2021/03/03 05:04:55;;;;;;;8.35;6.32;;;14.80;59.00;;;;;;5094270;28;20038;-61
2021/03/03 05:07:21;;;;;;;10.85;6.70;;;14.80;79.60;;;;;;5094117;28;20100;-61
2021/03/03 05:09:46;;;;;;;9.10;6.35;;;14.80;79.60;;;;;;5094060;28;20036;-61
2021/03/03 05:12:12;;;;;;;7.75;6.65;;;14.70;79.90;;;;;;5094707;27;20047;-61
2021/03/03 05:14:37;;;;;;;9.02;6.35;;;14.70;58.90;;;;;;5075919;28;20036;-61
2021/03/03 05:17:03;;;;;;;8.93;6.63;;;14.70;80.00;;;;;;5094052;28;20065;-61
2021/03/03 05:19:29;;;;;;;8.52;6.25;;;14.70;59.00;;;;;;5076013;28;20119;-61
2021/03/03 05:21:55;;;;;;;8.27;5.72;;;14.80;79.60;;;;;;5093935;28;20055;-61
2021/03/03 05:24:20;;;;;;;8.63;5.95;;;14.80;59.00;;;;;;5093872;28;20039;-61
2021/03/03 05:26:46;;;;;;;9.10;6.60;;;14.70;59.00;;;;;;5093813;28;20382;-61
2021/03/03 05:29:11;;;;;;;9.88;6.38;;;14.70;59.00;;;;;;5094043;28;20032;-60
2021/03/03 05:31:37;;;;;;;10.43;6.65;;;15.00;59.20;;;;;;5094069;28;20028;-61
2021/03/03 05:34:03;;;;;;;9.48;6.38;;;14.70;79.60;;;;;;5094014;28;20070;-61
2021/03/03 05:36:29;;;;;;;7.88;6.10;;;14.80;79.60;;;;;;5093580;28;20479;-59
2021/03/03 05:38:54;;;;;;;7.88;6.05;;;14.70;79.70;;;;;;5093503;28;20036;-61
2021/03/03 05:41:23;;;;;;;8.68;5.88;;;14.70;80.90;;;;;;5093288;28;20028;-61
2021/03/03 05:43:49;;;;;;;8.77;6.47;;;14.80;79.80;;;;;;5093427;28;20024;-60
2021/03/03 05:46:15;;;;;;;8.30;6.03;;;14.70;59.00;;;;;;5093404;28;20017;-61
2021/03/03 05:48:49;;;;;;;8.27;6.45;;;14.70;59.00;;;;;;5092339;28;20050;-61
2021/03/03 05:51:15;;;;;;;9.73;6.13;;;14.70;59.00;;;;;;5093316;28;20513;-61
2021/03/03 05:53:42;;;;;;;8.25;5.90;;;14.70;59.10;;;;;;5093344;28;20107;-61
2021/03/03 05:56:09;;;;;;;10.07;6.50;;;14.60;59.10;;;;;;5093497;28;20078;-61
2021/03/03 05:58:39;;;;;;;8.77;6.45;;;14.60;59.10;;;;;;5093426;28;20027;-61
2021/03/03 06:01:06;;;;;;;;;;;14.70;59.20;;;;;;5093681;28;20023;-61
2021/03/03 06:03:31;;;;;;;9.30;6.30;;;14.60;59.20;;;;;;5093225;28;19904;-61
2021/03/03 06:05:57;;;;;;;9.30;6.20;;;14.60;80.20;;;;;;5074724;28;20381;-61
2021/03/03 06:08:25;;;;;;;7.35;5.32;;;14.70;59.80;;;;;;5093130;28;20099;-60
2021/03/03 06:10:51;;;;;;;9.80;5.68;;;14.80;59.60;;;;;;5092950;28;20088;-61
2021/03/03 06:13:17;;;;;;;7.30;5.93;;;14.90;59.60;;;;;;5074230;28;20048;-60
2021/03/03 06:15:43;;;;;;;7.93;5.32;;;15.00;59.50;;;;;;5092882;28;20532;-61
2021/03/03 06:18:11;;;;;;;8.80;5.47;;;15.10;59.40;;;;;;5092800;28;20024;-61
2021/03/03 06:20:42;;;;;;;6.97;5.18;;;15.20;59.30;;;;;;5092570;28;20557;-60
2021/03/03 06:23:18;;;;;;;6.93;5.13;;;15.30;59.00;;;;;;5092976;28;20050;-61
2021/03/03 06:25:45;;;;;;;7.22;5.10;;;15.20;79.00;;;;;;5092545;28;20028;-61
2021/03/03 06:28:12;;;;;;;6.82;4.90;;;15.40;58.70;;;;;;5092346;28;20031;-61
2021/03/03 06:30:38;;;;;;;7.13;4.88;;;15.50;78.40;;;;;;5092769;28;20115;-61
2021/03/03 06:33:06;;;;;;;5.70;4.55;;;15.10;58.30;;;;;;5092561;28;20527;-61
2021/03/03 06:35:43;;;;;;;6.68;5.28;;;15.70;58.50;;;;;;5074063;28;20020;-61
2021/03/03 06:38:12;;;;;;;6.50;4.43;;;15.70;58.50;;;;;;5092860;28;20035;-61
2021/03/03 06:40:53;;;;;;;6.95;5.22;;;15.70;58.40;;;;;;5074282;28;20024;-60
2021/03/03 06:43:22;;;;;;;12.23;4.78;;;15.70;58.40;;;;;;5092205;28;20102;-61
2021/03/03 06:45:48;;;;;;;7.55;5.13;;;15.70;58.70;;;;;;5092426;28;20136;-61
2021/03/03 06:48:13;;;;;;;9.27;4.70;;;15.70;58.80;;;;;;5092336;28;20052;-62
2021/03/03 06:50:40;;;;;;;6.10;4.78;;;15.70;58.80;;;;;;5092313;28;20118;-60
2021/03/03 06:53:07;;;;;;;7.82;4.70;;;15.70;59.00;;;;;;5092313;28;20020;-59
2021/03/03 06:55:49;;;;;;;8.10;4.65;;;15.70;79.60;;;;;;5092332;28;20050;-60
2021/03/03 06:58:25;;;;;;;11.20;4.63;;;15.70;59.40;;;;;;5092351;28;20046;-61
2021/03/03 07:00:51;;;;;;;5.45;4.75;;;15.60;59.30;;;;;;5091713;28;20036;-60
2021/03/03 07:03:35;;;;;;;7.93;5.10;;;15.50;79.30;;;;;;5092109;28;20024;-60
2021/03/03 07:06:02;;;;;;;7.25;4.78;;;15.60;59.30;;;;;;5092255;28;20037;-60
2021/03/03 07:08:29;;;;;;;7.22;4.88;;;15.60;59.30;;;;;;5091958;28;20245;-61
2021/03/03 07:11:29;;;;;;;10.00;4.78;;;15.60;59.00;;;;;;5092607;28;20139;-61
2021/03/03 07:14:21;;;;;;;10.02;5.50;;;15.60;58.90;;;;;;5071659;28;20024;-61
2021/03/03 07:17:01;;;;;;;6.72;4.20;;;15.60;58.90;;;;;;5071812;28;20028;-61
2021/03/03 07:19:26;;;;;;;7.47;4.40;;;15.60;58.80;;;;;;5071756;28;20168;-61
2021/03/03 07:21:52;;;;;;;7.30;4.53;;;15.60;58.70;;;;;;5071635;28;20025;-61
2021/03/03 07:24:19;;;;;;;7.95;5.28;;;15.60;58.70;;;;;;5071863;28;20379;-60
2021/03/03 07:26:45;;;;;;;8.57;5.32;;;15.60;58.60;;;;;;5071773;28;20020;-60
2021/03/03 07:29:11;;;;;;;7.03;4.57;;;15.60;58.50;;;;;;5071602;28;20067;-60
2021/03/03 07:31:39;;;;;;;5.85;4.57;;;15.60;58.40;;;;;;5071501;28;20028;-60
2021/03/03 07:34:06;;;;;;;5.85;5.03;;;15.60;58.30;;;;;;5071795;28;20021;-61
2021/03/03 07:36:38;;;;;;;6.28;4.40;;;15.60;58.30;;;;;;5071742;28;20028;-61
2021/03/03 07:39:05;;;;;;;6.55;4.47;;;15.60;58.30;;;;;;5071756;28;20028;-61
2021/03/03 07:41:43;;;;;;;6.82;4.93;;;15.60;58.40;;;;;;5071681;28;20066;-61
2021/03/03 07:44:16;;;;;;;9.90;4.60;;;15.60;58.40;;;;;;5071711;28;20016;-60
2021/03/03 07:46:42;;;;;;;8.27;4.40;;;15.60;58.50;;;;;;5071736;28;20031;-60
2021/03/03 07:49:13;;;;;;;8.05;5.78;;;15.60;59.00;;;;;;5071654;28;20024;-60
2021/03/03 07:51:41;;;;;;;7.07;5.25;;;15.60;59.10;;;;;;5071898;28;20031;-59
2021/03/03 07:54:13;;;;;;;9.30;5.15;;;15.50;59.00;;;;;;5071842;28;20021;-60
2021/03/03 07:56:39;;;;;;;6.78;4.93;;;15.60;59.70;;;;;;5071478;28;20039;-61
2021/03/03 07:59:06;;;;;;;7.40;5.20;;;15.60;60.70;;;;;;5071397;28;20063;-61
2021/03/03 08:01:33;;;;;;;8.48;5.00;;;15.60;60.00;;;;;;5071322;28;20017;-61
2021/03/03 08:03:59;;;;;;;11.68;5.68;;;15.60;60.00;;;;;;5071396;28;20032;-61
2021/03/03 08:06:34;;;;;;;9.48;5.43;;;15.60;59.90;;;;;;5071579;28;20021;-61
2021/03/03 08:09:06;;;;;;;10.30;5.68;;;15.60;60.10;;;;;;5071352;28;20031;-61
2021/03/03 08:11:33;;;;;;;8.88;6.03;;;15.60;60.20;;;;;;5072728;28;20052;-61
2021/03/03 08:13:59;;;;;;;9.70;6.38;;;15.60;60.30;;;;;;5074649;28;20068;-61
2021/03/03 08:16:25;;;;;;;9.07;5.60;;;15.60;60.70;;;;;;5074511;28;20025;-61
2021/03/03 08:18:56;;;;;;;10.13;6.82;;;15.60;60.80;;;;;;5073389;28;20031;-61
2021/03/03 08:21:22;;;;;;;9.30;5.95;;;15.60;60.80;;;;;;5073842;28;20024;-61
2021/03/03 08:23:51;;;;;;;9.57;6.70;;;15.60;61.00;;;;;;5074231;28;20075;-61
2021/03/03 08:26:17;;;;;;;9.00;6.80;;;15.60;60.90;;;;;;5056285;28;20111;-61
2021/03/03 08:28:46;;;;;;;11.30;6.63;;;15.60;61.10;;;;;;5074039;28;20100;-60
2021/03/03 08:31:14;;;;;;;8.65;6.57;;;15.60;61.30;;;;;;5073931;28;20444;-62
2021/03/03 08:33:40;;;;;;;10.02;5.97;;;;;;;;;;5074444;28;20016;-61
2021/03/03 08:36:09;;;;;;;10.45;7.00;;;15.60;61.10;;;;;;5074562;28;20539;-61
2021/03/03 08:38:34;;;;;;;13.85;8.45;;;15.60;62.00;;;;;;5074421;28;20023;-61
2021/03/03 08:41:33;;;;;;;10.20;7.50;;;15.60;62.10;;;;;;5074400;28;20383;-61
2021/03/03 08:44:04;;;;;;;10.52;7.50;;;15.30;82.40;;;;;;5019223;28;20051;-62
2021/03/03 08:46:29;;;;;;;10.65;7.50;;;15.60;62.50;;;;;;5074061;28;20095;-61
2021/03/03 08:48:55;;;;;;;10.73;7.72;;;15.70;62.60;;;;;;5074405;28;20075;-62
2021/03/03 08:51:35;;;;;;;10.05;7.75;;;15.50;82.30;;;;;;5074130;28;20056;-61
2021/03/03 08:54:02;;;;;;;10.48;7.45;;;15.70;62.60;;;;;;5074001;28;20028;-62
2021/03/03 08:56:34;;;;;;;23.25;7.10;;;15.70;62.20;;;;;;5073997;28;20024;-60
2021/03/03 08:59:01;;;;;;;12.60;7.45;;;15.60;81.80;;;;;;5073615;28;20064;-64
2021/03/03 09:01:53;;;;;;;22.73;6.72;;;15.80;61.50;;;;;;5073619;28;20562;-64
2021/03/03 09:04:33;;;;;;;15.77;6.82;;;15.80;61.40;;;;;;5073914;28;20071;-64
2021/03/03 09:06:59;;;;;;;13.75;6.97;;;15.80;61.30;;;;;;5073844;28;20044;-65
2021/03/03 09:09:26;;;;;;;13.35;6.97;;;15.80;61.00;;;;;;5073680;28;20063;-64
2021/03/03 09:12:08;;;;;;;10.63;6.93;;;15.80;61.00;;;;;;5062097;28;20464;-63
2021/03/03 09:14:36;;;;;;;11.73;6.75;;;15.80;60.80;;;;;;5093949;28;20020;-64
2021/03/03 09:17:05;;;;;;;12.02;7.03;;;15.80;80.50;;;;;;5094195;28;20027;-64
2021/03/03 09:19:33;;;;;;;14.77;7.57;;;15.80;60.60;;;;;;5093857;28;20028;-64
2021/03/03 09:21:59;;;;;;;14.68;7.38;;;15.80;60.40;;;;;;5093808;28;20108;-64
2021/03/03 09:24:25;;;;;;;11.70;7.38;;;15.80;60.30;;;;;;5093772;28;20025;-64
2021/03/03 09:27:04;;;;;;;11.93;6.78;;;15.60;80.50;;;;;;5093690;28;20028;-64
2021/03/03 09:29:32;;;;;;;10.65;7.45;;;15.80;60.10;;;;;;5093536;28;20028;-64
2021/03/03 09:32:03;;;;;;;14.10;8.07;;;15.90;60.10;;;;;;5093648;28;20028;-64
2021/03/03 09:34:29;;;;;;;14.05;7.35;;;15.80;59.80;;;;;;5092909;28;20021;-65
2021/03/03 09:36:56;;;;;;;10.52;6.70;;;15.90;59.70;;;;;;5093310;28;20194;-64
2021/03/03 09:39:23;;;;;;;9.38;6.20;;;15.90;59.80;;;;;;5093739;28;20027;-66
2021/03/03 09:42:01;;;;;;;11.25;7.35;;;15.90;59.70;;;;;;5093557;28;20020;-66
2021/03/03 09:44:28;;;;;;;9.13;7.05;;;15.90;59.70;;;;;;5093129;28;20085;-66
2021/03/03 09:46:56;;;;;;;9.90;6.80;;;16.00;80.20;;;;;;5088881;28;20479;-66
2021/03/03 09:49:30;;;;;;;9.95;6.43;;;15.80;59.40;;;;;;5072990;28;20094;-65
2021/03/03 09:51:58;;;;;;;10.32;6.20;;;15.80;59.40;;;;;;5073329;28;20055;-66
2021/03/03 09:54:38;;;;;;;13.38;5.75;;;16.00;59.50;;;;;;5072860;28;20383;-65
2021/03/03 09:57:05;;;;;;;13.55;6.35;;;16.00;59.40;;;;;;5072869;28;20601;-66
2021/03/03 09:59:32;;;;;;;10.57;6.70;;;16.00;59.40;;;;;;5072914;28;20026;-65
2021/03/03 10:01:59;;;;;;;9.82;6.60;;;16.00;59.40;;;;;;5072900;28;20031;-66
2021/03/03 10:04:29;;;;;;;10.13;6.20;;;16.00;59.40;;;;;;5073040;28;20020;-65
2021/03/03 10:06:55;;;;;;;8.73;5.88;;;15.90;59.40;;;;;;5073078;28;20381;-65
2021/03/03 10:09:21;;;;;;;11.88;6.50;;;16.00;59.40;;;;;;5072523;28;20025;-65
2021/03/03 10:11:47;;;;;;;8.35;5.97;;;16.00;59.30;;;;;;5072811;28;20047;-65
2021/03/03 10:14:14;;;;;;;12.15;5.65;;;16.30;59.50;;;;;;5072481;28;20048;-65
2021/03/03 10:16:39;;;;;;;8.93;5.68;;;16.00;79.40;;;;;;5072451;28;20375;-66
2021/03/03 10:19:08;;;;;;;8.50;5.60;;;15.90;59.40;;;;;;5072223;28;20031;-66
2021/03/03 10:21:44;;;;;;;10.60;6.85;;;15.90;59.30;;;;;;5072336;28;20021;-66
2021/03/03 10:24:19;;;;;;;10.70;6.10;;;15.90;59.10;;;;;;5072416;28;20043;-64
2021/03/03 10:26:50;;;;;;;9.75;6.63;;;15.90;59.10;;;;;;5072566;28;20032;-66
2021/03/03 10:29:33;;;;;;;11.07;6.20;;;15.90;58.90;;;;;;5072454;28;20539;-66
2021/03/03 10:32:10;;;;;;;10.93;6.43;;;15.90;58.90;;;;;;5072316;28;20024;-66
2021/03/03 10:34:36;;;;;;;7.88;5.45;;;15.90;58.90;;;;;;5071755;28;20616;-66
2021/03/03 10:37:02;;;;;;;10.25;5.93;;;15.90;58.80;;;;;;5072230;28;20078;-66
2021/03/03 10:39:28;;;;;;;7.97;6.20;;;15.90;58.70;;;;;;5071873;28;20097;-66
2021/03/03 10:42:05;;;;;;;8.43;5.63;;;15.90;58.60;;;;;;5071927;28;20130;-66
2021/03/03 10:44:42;;;;;;;9.13;6.18;;;16.00;58.60;;;;;;5072206;28;20051;-66
2021/03/03 10:47:09;;;;;;;6.95;4.90;;;15.90;58.50;;;;;;5071874;28;20052;-66
2021/03/03 10:49:39;;;;;;;11.15;5.80;;;16.00;58.60;;;;;;5072177;28;20031;-66
2021/03/03 10:52:19;;;;;;;9.20;5.88;;;16.00;58.50;;;;;;5072262;28;20074;-66
2021/03/03 10:54:45;;;;;;;8.45;5.18;;;16.00;58.50;;;;;;5072259;28;20103;-66
2021/03/03 10:57:11;;;;;;;7.55;4.80;;;16.00;58.40;;;;;;5072250;28;20108;-66
2021/03/03 10:59:38;;;;;;;6.55;5.22;;;16.00;58.30;;;;;;5071859;28;20035;-64
2021/03/03 11:02:05;;;;;;;7.25;4.97;;;16.00;58.20;;;;;;5071930;28;20044;-64
2021/03/03 11:04:42;;;;;;;7.30;4.90;;;16.00;58.20;;;;;;5071962;28;20025;-66
2021/03/03 11:07:08;;;;;;;6.15;4.57;;;16.10;58.20;;;;;;5071929;28;20035;-66
2021/03/03 11:09:34;;;;;;;7.10;5.20;;;16.10;58.20;;;;;;5071954;28;20029;-64
2021/03/03 11:12:01;;;;;;;6.28;5.07;;;16.10;58.20;;;;;;5067902;28;20114;-66
2021/03/03 11:14:30;;;;;;;5.55;4.47;;;16.10;58.20;;;;;;5051819;28;20501;-66
2021/03/03 11:16:57;;;;;;;9.60;4.63;;;16.10;58.20;;;;;;5051869;28;20497;-66
2021/03/03 11:19:23;;;;;;;6.05;4.55;;;16.10;58.20;;;;;;5033954;28;20025;-66
2021/03/03 11:21:49;;;;;;;6.47;4.38;;;16.10;58.10;;;;;;5051741;28;20066;-66
2021/03/03 11:24:21;;;;;;;6.88;5.03;;;16.10;58.00;;;;;;5051700;28;20025;-66
2021/03/03 11:26:47;;;;;;;6.65;4.82;;;16.50;58.30;;;;;;5031539;28;20029;-66
2021/03/03 11:29:14;;;;;;;5.95;4.57;;;16.10;58.00;;;;;;5031672;28;20112;-66
2021/03/03 11:31:41;;;;;;;6.20;4.40;;;16.10;58.00;;;;;;5031555;28;20028;-66
2021/03/03 11:34:07;;;;;;;8.05;5.30;;;16.10;58.00;;;;;;5031486;28;20026;-66
2021/03/03 11:36:34;;;;;;;7.40;5.15;;;16.20;58.10;;;;;;5033719;28;20047;-66
2021/03/03 11:38:59;;;;;;;7.20;4.80;;;16.20;58.10;;;;;;5051531;28;20021;-66
2021/03/03 11:41:26;;;;;;;7.10;4.05;;;16.20;58.10;;;;;;5051543;28;20376;-66
2021/03/03 11:43:52;;;;;;;6.50;4.47;;;16.10;58.00;;;;;;5051542;28;20037;-66
2021/03/03 11:46:18;;;;;;;6.97;4.28;;;16.10;79.00;;;;;;5052245;28;20217;-66
2021/03/03 11:48:44;;;;;;;6.22;4.40;;;16.20;57.90;;;;;;5055454;28;20021;-63
2021/03/03 11:51:09;;;;;;;4.82;4.28;;;16.20;57.90;;;;;;5055066;28;20037;-67
2021/03/03 11:53:35;;;;;;;5.03;4.15;;;16.30;78.20;;;;;;5055167;28;20429;-67
2021/03/03 11:56:01;;;;;;;5.60;4.47;;;16.30;78.10;;;;;;5037091;28;20025;-66
2021/03/03 11:58:27;;;;;;;7.20;4.38;;;16.20;57.90;;;;;;5054983;28;20067;-67
2021/03/03 12:00:52;;;;;;;6.25;3.95;;;16.20;58.00;;;;;;5055373;28;20041;-67
2021/03/03 12:03:18;;;;;;;5.10;3.58;;;16.20;57.90;;;;;;5054877;28;20033;-65
2021/03/03 12:05:44;;;;;;;6.47;4.10;;;16.20;57.90;;;;;;5037361;28;20040;-63
2021/03/03 12:08:09;;;;;;;5.75;4.20;;;16.20;77.80;;;;;;5055100;28;20029;-63
2021/03/03 12:10:38;;;;;;;9.18;4.72;;;16.20;57.90;;;;;;5054654;28;20033;-66
2021/03/03 12:13:04;;;;;;;6.50;4.25;;;16.20;57.80;;;;;;5055784;28;20106;-66
2021/03/03 12:15:31;;;;;;;5.97;4.32;;;16.20;57.90;;;;;;5054969;28;20028;-66
2021/03/03 12:17:56;;;;;;;6.18;4.50;;;16.20;57.80;;;;;;5055117;28;20025;-66
2021/03/03 12:20:24;;;;;;;6.07;4.28;;;16.20;57.90;;;;;;5054688;28;20087;-66
2021/03/03 12:22:49;;;;;;;5.30;4.13;;;16.20;57.90;;;;;;5054653;28;20043;-66
2021/03/03 12:25:15;;;;;;;7.43;4.40;;;16.20;58.00;;;;;;5054700;28;20025;-66
2021/03/03 12:27:41;;;;;;;6.45;4.40;;;16.20;58.00;;;;;;5054700;28;20051;-66
2021/03/03 12:30:07;;;;;;;7.78;4.72;;;16.20;57.90;;;;;;5054914;28;20041;-66
2021/03/03 12:32:33;;;;;;;9.38;4.72;;;16.10;57.90;;;;;;5036365;28;20029;-66
2021/03/03 12:34:59;;;;;;;7.15;5.25;;;16.10;57.80;;;;;;5036709;28;20017;-66
2021/03/03 12:37:26;;;;;;;6.32;4.63;;;16.10;57.80;;;;;;5036551;28;20043;-66
2021/03/03 12:39:52;;;;;;;7.22;5.03;;;16.10;57.80;;;;;;5054637;28;20198;-66
2021/03/03 12:42:17;;;;;;;4.90;4.35;;;16.10;57.80;;;;;;5054522;28;20068;-66
2021/03/03 12:44:43;;;;;;;7.10;5.43;;;16.10;57.90;;;;;;5054347;28;20025;-66
2021/03/03 12:47:09;;;;;;;5.65;4.28;;;16.10;57.90;;;;;;5053513;28;20029;-66
2021/03/03 12:49:35;;;;;;;8.48;5.43;;;16.10;57.90;;;;;;5054313;28;20021;-66